createdAt,value
2018-11-23T00:00:29.402Z,102346.13
2018-11-23T00:02:57.709Z,102343.98
2018-11-23T00:05:25.460Z,102344.44
2018-11-23T00:07:53.677Z,102340.50
2018-11-23T00:10:22.665Z,102341.78
2018-11-23T00:12:50.449Z,102342.67
2018-11-23T00:15:19.426Z,102343.58
2018-11-23T00:17:47.198Z,102342.26
2018-11-23T00:20:16.193Z,102338.73
2018-11-23T00:22:43.847Z,102342.66
2018-11-23T00:25:14.612Z,102342.68
2018-11-23T00:27:42.539Z,102342.23
2018-11-23T00:30:20.036Z,102339.61
2018-11-23T00:32:48.347Z,102334.80
2018-11-23T00:35:17.834Z,102342.25
2018-11-23T00:37:45.954Z,102338.30
2018-11-23T00:40:18.415Z,102340.49
2018-11-23T00:42:46.074Z,102340.50
2018-11-23T00:45:13.742Z,102339.20
2018-11-23T00:47:42.199Z,102338.73
2018-11-23T00:50:11.869Z,102339.17
2018-11-23T00:52:40.802Z,102347.05
2018-11-23T00:55:09.950Z,102333.48
2018-11-23T00:57:38.073Z,102341.34
2018-11-23T01:00:11.080Z,102335.66
2018-11-23T01:02:38.717Z,102338.30
2018-11-23T01:05:06.450Z,102340.50
2018-11-23T01:07:34.322Z,102343.55
2018-11-23T01:10:02.109Z,102337.44
2018-11-23T01:12:29.753Z,102338.73
2018-11-23T01:14:57.407Z,102334.36
2018-11-23T01:17:25.055Z,102326.52
2018-11-23T01:19:52.665Z,102329.58
2018-11-23T01:22:20.474Z,102326.95
2018-11-23T01:24:48.086Z,102328.28
2018-11-23T01:27:15.707Z,102328.73
2018-11-23T01:29:43.435Z,102330.90
2018-11-23T01:32:11.195Z,102324.34
2018-11-23T01:34:38.811Z,102321.70
2018-11-23T01:37:06.474Z,102320.38
2018-11-23T01:39:34.128Z,102316.02
2018-11-23T01:42:01.711Z,102316.47
2018-11-23T01:44:29.437Z,102316.47
2018-11-23T01:46:57.251Z,102311.21
2018-11-23T01:49:24.895Z,102308.16
2018-11-23T01:51:52.495Z,102306.84
2018-11-23T01:54:20.174Z,102308.14
2018-11-23T01:56:47.787Z,102304.69
2018-11-23T01:59:15.442Z,102306.44
2018-11-23T02:01:43.146Z,102300.32
2018-11-23T02:04:10.806Z,102297.70
2018-11-23T02:06:38.426Z,102293.32
2018-11-23T02:09:07.165Z,102288.08
2018-11-23T02:11:34.783Z,102290.70
2018-11-23T02:14:02.541Z,102287.20
2018-11-23T02:16:30.181Z,102288.94
2018-11-23T02:18:57.779Z,102285.03
2018-11-23T02:21:25.471Z,102285.43
2018-11-23T02:23:53.139Z,102287.20
2018-11-23T02:26:20.903Z,102284.58
2018-11-23T02:28:48.710Z,102282.39
2018-11-23T02:31:16.433Z,102285.03
2018-11-23T02:33:44.070Z,102276.73
2018-11-23T02:36:11.763Z,102284.59
2018-11-23T02:38:39.397Z,102288.55
2018-11-23T02:41:07.009Z,102278.06
2018-11-23T02:43:34.706Z,102270.61
2018-11-23T02:46:02.348Z,102282.86
2018-11-23T02:48:30.042Z,102277.17
2018-11-23T02:50:57.729Z,102275.88
2018-11-23T02:53:25.375Z,102285.03
2018-11-23T02:55:53.056Z,102274.11
2018-11-23T02:58:20.734Z,102271.50
2018-11-23T03:00:48.342Z,102275.43
2018-11-23T03:03:15.976Z,102275.00
2018-11-23T03:05:43.624Z,102268.86
2018-11-23T03:08:11.264Z,102275.84
2018-11-23T03:10:38.906Z,102270.60
2018-11-23T03:13:06.570Z,102263.20
2018-11-23T03:15:34.370Z,102267.14
2018-11-23T03:18:02.028Z,102258.40
2018-11-23T03:20:29.648Z,102252.73
2018-11-23T03:22:57.432Z,102258.40
2018-11-23T03:25:25.014Z,102251.84
2018-11-23T03:27:52.670Z,102261.43
2018-11-23T03:30:21.607Z,102257.07
2018-11-23T03:32:49.938Z,102258.38
2018-11-23T03:35:18.161Z,102257.92
2018-11-23T03:37:45.945Z,102257.94
2018-11-23T03:40:13.613Z,102267.11
2018-11-23T03:42:41.387Z,102256.64
2018-11-23T03:45:10.461Z,102258.38
2018-11-23T03:47:38.087Z,102260.55
2018-11-23T03:50:06.833Z,102261.86
2018-11-23T03:52:34.447Z,102260.14
2018-11-23T03:55:02.142Z,102259.27
2018-11-23T03:57:29.825Z,102258.81
2018-11-23T03:59:57.512Z,102257.95
2018-11-23T04:02:25.561Z,102257.97
2018-11-23T04:04:53.264Z,102253.58
2018-11-23T04:07:20.941Z,102254.88
2018-11-23T04:09:48.553Z,102254.43
2018-11-23T04:12:16.218Z,102248.77
2018-11-23T04:14:43.842Z,102252.28
2018-11-23T04:17:11.505Z,102253.56
2018-11-23T04:19:39.171Z,102252.26
2018-11-23T04:22:06.803Z,102250.50
2018-11-23T04:24:34.454Z,102252.65
2018-11-23T04:27:02.021Z,102246.11
2018-11-23T04:29:29.909Z,102242.20
2018-11-23T04:31:57.781Z,102244.81
2018-11-23T04:34:26.224Z,102244.38
2018-11-23T04:36:53.977Z,102244.40
2018-11-23T04:39:21.560Z,102242.64
2018-11-23T04:41:49.205Z,102245.29
2018-11-23T04:44:16.883Z,102241.80
2018-11-23T04:46:44.492Z,102237.87
2018-11-23T04:49:12.163Z,102236.98
2018-11-23T04:51:39.814Z,102237.84
2018-11-23T04:54:07.463Z,102237.42
2018-11-23T04:56:35.101Z,102250.55
2018-11-23T04:59:02.732Z,102244.42
2018-11-23T05:01:30.364Z,102250.08
2018-11-23T05:03:58.019Z,102247.03
2018-11-23T05:06:25.678Z,102255.77
2018-11-23T05:08:53.536Z,102249.23
2018-11-23T05:11:21.817Z,102253.61
2018-11-23T05:13:49.442Z,102256.65
2018-11-23T05:16:17.083Z,102252.28
2018-11-23T05:18:44.728Z,102247.05
2018-11-23T05:21:12.334Z,102245.31
2018-11-23T05:23:39.996Z,102245.33
2018-11-23T05:26:07.650Z,102244.44
2018-11-23T05:28:35.277Z,102242.23
2018-11-23T05:31:02.898Z,102242.69
2018-11-23T05:33:30.583Z,102239.64
2018-11-23T05:35:58.251Z,102245.33
2018-11-23T05:38:25.938Z,102242.26
2018-11-23T05:40:53.712Z,102246.63
2018-11-23T05:43:21.484Z,102233.95
2018-11-23T05:45:49.082Z,102238.77
2018-11-23T05:48:16.742Z,102241.39
2018-11-23T05:50:44.354Z,102240.53
2018-11-23T05:53:12.043Z,102240.52
2018-11-23T05:55:39.702Z,102236.59
2018-11-23T05:58:07.397Z,102230.03
2018-11-23T06:00:35.121Z,102228.27
2018-11-23T06:03:02.796Z,102227.42
2018-11-23T06:05:30.444Z,102229.16
2018-11-23T06:07:58.056Z,102225.64
2018-11-23T06:10:25.707Z,102221.73
2018-11-23T06:12:53.346Z,102219.97
2018-11-23T06:15:22.375Z,102225.22
2018-11-23T06:17:50.464Z,102221.72
2018-11-23T06:20:21.953Z,102219.97
2018-11-23T06:22:50.474Z,102220.41
2018-11-23T06:25:28.633Z,102216.47
2018-11-23T06:27:56.269Z,102215.61
2018-11-23T06:30:23.882Z,102219.55
2018-11-23T06:33:02.787Z,102221.73
2018-11-23T06:35:30.422Z,102223.02
2018-11-23T06:37:58.204Z,102224.34
2018-11-23T06:40:25.848Z,102221.72
2018-11-23T06:42:53.541Z,102224.78
2018-11-23T06:45:21.389Z,102228.73
2018-11-23T06:47:49.056Z,102227.42
2018-11-23T06:50:16.753Z,102235.70
2018-11-23T06:52:44.430Z,102239.22
2018-11-23T06:55:12.416Z,102236.15
2018-11-23T06:57:40.462Z,102234.41
2018-11-23T07:00:11.415Z,102235.70
2018-11-23T07:02:39.290Z,102235.28
2018-11-23T07:05:07.794Z,102238.80
2018-11-23T07:07:36.625Z,102238.32
2018-11-23T07:10:04.741Z,102247.50
2018-11-23T07:12:32.416Z,102238.80
2018-11-23T07:15:00.215Z,102237.45
2018-11-23T07:17:27.853Z,102249.27
2018-11-23T07:19:56.311Z,102247.51
2018-11-23T07:22:24.080Z,102251.00
2018-11-23T07:24:54.779Z,102250.13
2018-11-23T07:27:22.393Z,102248.82
2018-11-23T07:29:50.082Z,102244.89
2018-11-23T07:32:17.675Z,102245.78
2018-11-23T07:34:45.332Z,102252.75
2018-11-23T07:37:12.986Z,102245.34
2018-11-23T07:39:51.820Z,102244.88
2018-11-23T07:42:23.178Z,102244.89
2018-11-23T07:44:50.801Z,102240.95
2018-11-23T07:47:18.527Z,102239.64
2018-11-23T07:49:46.661Z,102243.14
2018-11-23T07:52:14.580Z,102239.20
2018-11-23T07:54:42.412Z,102237.88
2018-11-23T07:57:10.397Z,102235.26
2018-11-23T07:59:38.248Z,102242.69
2018-11-23T08:02:07.456Z,102236.55
2018-11-23T08:04:35.215Z,102241.83
2018-11-23T08:07:02.928Z,102241.38
2018-11-23T08:09:30.611Z,102247.52
2018-11-23T08:11:58.398Z,102239.66
2018-11-23T08:14:26.021Z,102244.88
2018-11-23T08:16:53.687Z,102243.56
2018-11-23T08:19:21.360Z,102243.14
2018-11-23T08:21:49.035Z,102245.33
2018-11-23T08:24:16.723Z,102234.39
2018-11-23T08:26:44.399Z,102237.03
2018-11-23T08:29:12.207Z,102238.77
2018-11-23T08:31:40.026Z,102226.11
2018-11-23T08:34:07.816Z,102233.55
2018-11-23T08:36:35.657Z,102238.33
2018-11-23T08:39:04.946Z,102235.73
2018-11-23T08:41:32.707Z,102247.52
2018-11-23T08:44:00.369Z,102239.22
2018-11-23T08:46:28.097Z,102235.30
2018-11-23T08:48:55.797Z,102235.27
2018-11-23T08:51:23.426Z,102237.47
2018-11-23T08:53:51.078Z,102237.91
2018-11-23T08:56:18.724Z,102233.11
2018-11-23T08:58:46.337Z,102238.34
2018-11-23T09:01:14.018Z,102229.61
2018-11-23T09:03:41.687Z,102222.17
2018-11-23T09:06:09.468Z,102215.63
2018-11-23T09:08:37.131Z,102224.36
2018-11-23T09:11:05.615Z,102213.87
2018-11-23T09:13:33.300Z,102215.18
2018-11-23T09:16:01.028Z,102203.84
2018-11-23T09:18:28.735Z,102202.06
2018-11-23T09:20:56.424Z,102202.06
2018-11-23T09:23:24.415Z,102195.98
2018-11-23T09:25:52.056Z,102196.83
2018-11-23T09:28:19.793Z,102197.72
2018-11-23T09:30:47.455Z,102193.78
2018-11-23T09:33:15.111Z,102194.21
2018-11-23T09:35:42.895Z,102194.64
2018-11-23T09:38:10.599Z,102190.73
2018-11-23T09:40:38.326Z,102187.66
2018-11-23T09:43:06.035Z,102192.90
2018-11-23T09:45:34.482Z,102191.17
2018-11-23T09:48:03.350Z,102192.45
2018-11-23T09:50:31.023Z,102187.22
2018-11-23T09:53:00.295Z,102185.47
2018-11-23T09:55:29.193Z,102196.39
2018-11-23T09:57:56.929Z,102192.45
2018-11-23T10:00:26.202Z,102194.66
2018-11-23T10:02:54.789Z,102188.98
2018-11-23T10:05:23.164Z,102189.42
2018-11-23T10:07:53.452Z,102180.25
2018-11-23T10:10:21.839Z,102178.05
2018-11-23T10:12:49.588Z,102178.52
2018-11-23T10:15:18.001Z,102175.91
2018-11-23T10:17:45.697Z,102174.12
2018-11-23T10:20:15.800Z,102172.81
2018-11-23T10:22:43.706Z,102168.00
2018-11-23T10:25:12.821Z,102171.07
2018-11-23T10:27:41.127Z,102170.62
2018-11-23T10:30:11.190Z,102172.37
2018-11-23T10:32:38.839Z,102171.50
2018-11-23T10:35:07.193Z,102170.19
2018-11-23T10:37:34.912Z,102171.92
2018-11-23T10:40:02.592Z,102168.42
2018-11-23T10:42:30.307Z,102161.06
2018-11-23T10:44:57.980Z,102165.84
2018-11-23T10:47:25.677Z,102164.11
2018-11-23T10:49:54.667Z,102154.94
2018-11-23T10:52:22.324Z,102154.50
2018-11-23T10:54:50.076Z,102144.45
2018-11-23T10:57:17.759Z,102140.52
2018-11-23T10:59:45.616Z,102143.56
2018-11-23T11:02:18.833Z,102137.01
2018-11-23T11:04:58.074Z,102137.89
2018-11-23T11:07:25.751Z,102135.70
2018-11-23T11:09:53.407Z,102127.81
2018-11-23T11:12:21.118Z,102133.50
2018-11-23T11:14:48.761Z,102135.27
2018-11-23T11:17:16.446Z,102130.45
2018-11-23T11:19:44.111Z,102120.40
2018-11-23T11:22:11.791Z,102119.51
2018-11-23T11:24:39.497Z,102116.46
2018-11-23T11:27:07.193Z,102107.74
2018-11-23T11:29:35.017Z,102111.22
2018-11-23T11:32:02.659Z,102106.86
2018-11-23T11:34:30.318Z,102109.48
2018-11-23T11:36:57.989Z,102106.86
2018-11-23T11:39:25.694Z,102102.47
2018-11-23T11:41:53.358Z,102099.88
2018-11-23T11:44:21.197Z,102098.53
2018-11-23T11:46:48.863Z,102095.48
2018-11-23T11:49:16.541Z,102097.22
2018-11-23T11:51:44.151Z,102094.60
2018-11-23T11:54:11.817Z,102091.98
2018-11-23T11:56:39.541Z,102090.25
2018-11-23T11:59:07.186Z,102082.81
2018-11-23T12:01:34.890Z,102082.81
2018-11-23T12:04:02.555Z,102084.55
2018-11-23T12:06:30.274Z,102084.12
2018-11-23T12:08:57.948Z,102084.13
2018-11-23T12:11:25.563Z,102084.55
2018-11-23T12:13:53.271Z,102080.19
2018-11-23T12:16:20.916Z,102082.34
2018-11-23T12:18:48.576Z,102077.56
2018-11-23T12:21:16.248Z,102081.92
2018-11-23T12:23:44.117Z,102078.45
2018-11-23T12:26:11.824Z,102077.56
2018-11-23T12:28:39.466Z,102077.14
2018-11-23T12:31:07.133Z,102074.09
2018-11-23T12:33:34.765Z,102071.44
2018-11-23T12:36:02.415Z,102064.45
2018-11-23T12:38:30.091Z,102063.14
2018-11-23T12:40:57.797Z,102061.38
2018-11-23T12:43:25.455Z,102051.77
2018-11-23T12:45:53.049Z,102053.08
2018-11-23T12:48:20.785Z,102050.00
2018-11-23T12:50:48.436Z,102050.03
2018-11-23T12:53:16.098Z,102048.27
2018-11-23T12:55:43.788Z,102042.59
2018-11-23T12:58:11.442Z,102039.08
2018-11-23T13:00:39.105Z,102039.52
2018-11-23T13:03:06.839Z,102037.31
2018-11-23T13:05:35.181Z,102038.62
2018-11-23T13:08:04.522Z,102033.37
2018-11-23T13:10:32.224Z,102028.13
2018-11-23T13:13:00.959Z,102018.53
2018-11-23T13:15:28.622Z,102028.13
2018-11-23T13:17:56.956Z,102028.59
2018-11-23T13:20:24.605Z,102028.59
2018-11-23T13:22:52.720Z,102024.66
2018-11-23T13:25:22.056Z,102025.09
2018-11-23T13:27:49.722Z,102028.56
2018-11-23T13:30:26.346Z,102035.54
2018-11-23T13:32:53.974Z,102032.06
2018-11-23T13:35:21.656Z,102025.55
2018-11-23T13:37:49.435Z,102023.81
2018-11-23T13:40:19.337Z,102017.68
2018-11-23T13:42:47.794Z,102014.17
2018-11-23T13:45:16.897Z,102012.44
2018-11-23T13:47:44.628Z,102014.59
2018-11-23T13:50:13.809Z,102017.68
2018-11-23T13:52:42.998Z,102015.05
2018-11-23T13:55:10.796Z,102015.91
2018-11-23T13:57:38.479Z,102015.05
2018-11-23T14:00:14.289Z,102011.55
2018-11-23T14:02:42.336Z,102014.59
2018-11-23T14:05:12.151Z,102015.05
2018-11-23T14:07:40.011Z,102011.55
2018-11-23T14:10:11.063Z,102015.94
2018-11-23T14:12:38.723Z,102020.30
2018-11-23T14:15:10.944Z,102013.75
2018-11-23T14:17:38.800Z,102012.86
2018-11-23T14:20:09.348Z,102015.48
2018-11-23T14:22:37.274Z,102016.37
2018-11-23T14:25:05.326Z,102015.05
2018-11-23T14:27:33.076Z,102019.41
2018-11-23T14:30:00.737Z,102008.05
2018-11-23T14:32:28.465Z,102011.97
2018-11-23T14:34:56.124Z,102010.66
2018-11-23T14:37:23.853Z,102007.19
2018-11-23T14:39:51.556Z,102010.23
2018-11-23T14:42:19.329Z,102011.97
2018-11-23T14:44:46.993Z,102002.80
2018-11-23T14:47:14.717Z,101997.13
2018-11-23T14:49:42.398Z,101995.81
2018-11-23T14:52:10.107Z,101990.14
2018-11-23T14:54:42.663Z,101992.73
2018-11-23T14:57:05.516Z,101991.42
2018-11-23T14:59:33.269Z,101987.48
2018-11-23T15:02:00.936Z,101989.25
2018-11-23T15:04:28.646Z,101978.31
2018-11-23T15:06:56.348Z,101988.38
2018-11-23T15:09:24.014Z,101990.14
2018-11-23T15:11:51.761Z,101988.41
2018-11-23T15:14:19.408Z,101992.34
2018-11-23T15:16:47.074Z,101993.62
2018-11-23T15:19:14.728Z,101994.93
2018-11-23T15:21:42.396Z,101990.58
2018-11-23T15:24:10.128Z,101987.52
2018-11-23T15:26:37.791Z,101987.09
2018-11-23T15:29:05.751Z,101986.64
2018-11-23T15:31:33.424Z,101980.97
2018-11-23T15:36:35.391Z,101975.30
2018-11-23T15:39:03.895Z,101978.34
2018-11-23T15:41:31.539Z,101977.03
2018-11-23T15:43:59.240Z,101979.23
2018-11-23T15:46:26.944Z,101985.79
2018-11-23T15:48:54.650Z,101976.57
2018-11-23T15:51:22.317Z,101983.13
2018-11-23T15:53:50.053Z,101977.89
2018-11-23T15:56:17.728Z,101973.95
2018-11-23T15:58:45.398Z,101969.17
2018-11-23T16:01:13.061Z,101978.31
2018-11-23T16:03:40.714Z,101974.38
2018-11-23T16:06:08.442Z,101977.46
2018-11-23T16:08:36.115Z,101979.20
2018-11-23T16:11:03.778Z,101977.03
2018-11-23T16:13:31.484Z,101979.19
2018-11-23T16:15:59.179Z,101983.13
2018-11-23T16:18:26.849Z,101980.08
2018-11-23T16:20:54.555Z,101978.77
2018-11-23T16:23:22.209Z,101977.88
2018-11-23T16:25:50.988Z,101973.95
2018-11-23T16:28:18.714Z,101974.41
2018-11-23T16:30:47.801Z,101971.33
2018-11-23T16:33:17.212Z,101966.51
2018-11-23T16:35:44.969Z,101971.33
2018-11-23T16:38:16.041Z,101970.44
2018-11-23T16:40:45.852Z,101970.05
2018-11-23T16:43:14.475Z,101968.28
2018-11-23T16:45:43.572Z,101965.23
2018-11-23T16:48:12.161Z,101963.46
2018-11-23T16:50:39.876Z,101957.79
2018-11-23T16:53:07.645Z,101951.23
2018-11-23T16:55:35.309Z,101957.37
2018-11-23T16:58:05.220Z,101945.98
2018-11-23T17:00:34.183Z,101947.73
2018-11-23T17:03:04.104Z,101950.35
2018-11-23T17:05:33.369Z,101957.80
2018-11-23T17:08:01.159Z,101953.44
2018-11-23T17:10:28.845Z,101953.86
2018-11-23T17:12:56.533Z,101948.20
2018-11-23T17:15:25.606Z,101946.45
2018-11-23T17:17:53.307Z,101952.13
2018-11-23T17:20:22.371Z,101954.33
2018-11-23T17:22:50.922Z,101953.44
2018-11-23T17:25:19.772Z,101941.63
2018-11-23T17:27:47.725Z,101939.90
2018-11-23T17:30:18.979Z,101941.63
2018-11-23T17:32:46.725Z,101939.90
2018-11-23T17:35:14.405Z,101939.90
2018-11-23T17:37:42.408Z,101938.59
2018-11-23T17:40:12.586Z,101934.66
2018-11-23T17:42:40.276Z,101940.33
2018-11-23T17:45:13.705Z,101936.39
2018-11-23T17:47:41.394Z,101935.09
2018-11-23T17:50:14.121Z,101935.09
2018-11-23T17:52:42.039Z,101932.92
2018-11-23T17:55:11.259Z,101932.04
2018-11-23T17:57:40.254Z,101932.89
2018-11-23T18:00:13.642Z,101931.15
2018-11-23T18:02:41.665Z,101928.06
2018-11-23T18:05:10.654Z,101930.72
2018-11-23T18:07:38.436Z,101928.52
2018-11-23T18:10:08.798Z,101931.15
2018-11-23T18:12:36.443Z,101923.28
2018-11-23T18:15:04.883Z,101928.53
2018-11-23T18:17:32.533Z,101925.91
2018-11-23T18:20:00.153Z,101933.34
2018-11-23T18:22:27.813Z,101927.22
2018-11-23T18:24:55.453Z,101925.47
2018-11-23T18:27:23.082Z,101921.08
2018-11-23T18:29:50.712Z,101924.13
2018-11-23T18:32:18.367Z,101914.52
2018-11-23T18:34:45.977Z,101920.19
2018-11-23T18:37:13.648Z,101919.77
2018-11-23T18:39:41.460Z,101924.59
2018-11-23T18:42:09.112Z,101920.66
2018-11-23T18:44:36.753Z,101919.34
2018-11-23T18:47:04.519Z,101922.86
2018-11-23T18:49:32.183Z,101921.97
2018-11-23T18:51:59.810Z,101919.78
2018-11-23T18:54:27.470Z,101920.20
2018-11-23T18:56:55.095Z,101921.55
2018-11-23T18:59:22.724Z,101920.66
2018-11-23T19:01:50.358Z,101908.44
2018-11-23T19:04:17.995Z,101907.97
2018-11-23T19:06:45.630Z,101907.08
2018-11-23T19:09:13.290Z,101901.41
2018-11-23T19:11:40.984Z,101900.56
2018-11-23T19:14:08.668Z,101899.69
2018-11-23T19:16:36.318Z,101898.80
2018-11-23T19:19:04.100Z,101893.55
2018-11-23T19:21:31.763Z,101898.37
2018-11-23T19:23:59.373Z,101894.87
2018-11-23T19:26:27.061Z,101889.62
2018-11-23T19:28:54.708Z,101892.70
2018-11-23T19:31:22.356Z,101887.89
2018-11-23T19:33:49.981Z,101881.75
2018-11-23T19:36:17.669Z,101879.59
2018-11-23T19:38:45.255Z,101877.39
2018-11-23T19:41:12.876Z,101878.70
2018-11-23T19:43:40.532Z,101880.91
2018-11-23T19:46:08.127Z,101873.89
2018-11-23T19:48:35.827Z,101868.64
2018-11-23T19:51:03.458Z,101863.41
2018-11-23T19:53:31.121Z,101859.92
2018-11-23T19:55:58.786Z,101860.78
2018-11-23T19:58:26.443Z,101859.47
2018-11-23T20:00:54.125Z,101861.25
2018-11-23T20:03:21.805Z,101854.27
2018-11-23T20:05:49.450Z,101851.19
2018-11-23T20:08:17.072Z,101843.78
2018-11-23T20:10:44.715Z,101841.58
2018-11-23T20:13:12.319Z,101839.80
2018-11-23T20:15:39.964Z,101840.69
2018-11-23T20:18:07.584Z,101840.26
2018-11-23T20:20:35.238Z,101831.94
2018-11-23T20:23:02.848Z,101836.75
2018-11-23T20:25:30.488Z,101834.56
2018-11-23T20:27:58.426Z,101832.83
2018-11-23T20:30:26.067Z,101830.63
2018-11-23T20:32:53.771Z,101834.13
2018-11-23T20:35:22.064Z,101827.63
2018-11-23T20:37:49.705Z,101823.70
2018-11-23T20:40:21.213Z,101813.64
2018-11-23T20:42:48.826Z,101812.34
2018-11-23T20:45:16.754Z,101812.34
2018-11-23T20:47:44.394Z,101816.72
2018-11-23T20:50:13.250Z,101812.33
2018-11-23T20:52:40.896Z,101814.95
2018-11-23T20:55:12.977Z,101811.91
2018-11-23T20:57:40.630Z,101812.80
2018-11-23T21:00:11.773Z,101812.77
2018-11-23T21:02:39.512Z,101807.53
2018-11-23T21:05:08.634Z,101815.42
2018-11-23T21:07:36.675Z,101802.72
2018-11-23T21:10:08.373Z,101803.60
2018-11-23T21:12:35.970Z,101802.75
2018-11-23T21:15:03.666Z,101794.84
2018-11-23T21:17:31.318Z,101790.95
2018-11-23T21:19:58.979Z,101789.19
2018-11-23T21:22:26.612Z,101792.27
2018-11-23T21:24:54.277Z,101791.38
2018-11-23T21:27:21.958Z,101787.03
2018-11-23T21:29:49.576Z,101789.19
2018-11-23T21:32:17.237Z,101785.72
2018-11-23T21:34:44.871Z,101794.02
2018-11-23T21:37:12.481Z,101794.02
2018-11-23T21:39:40.090Z,101790.97
2018-11-23T21:42:07.754Z,101790.97
2018-11-23T21:44:35.361Z,101788.34
2018-11-23T21:47:02.932Z,101783.11
2018-11-23T21:49:30.716Z,101788.81
2018-11-23T21:51:58.368Z,101787.92
2018-11-23T21:54:25.997Z,101790.09
2018-11-23T21:56:53.637Z,101792.70
2018-11-23T21:59:21.257Z,101790.55
2018-11-23T22:01:48.930Z,101787.94
2018-11-23T22:04:16.616Z,101790.55
2018-11-23T22:06:44.230Z,101794.95
2018-11-23T22:09:11.874Z,101796.22
2018-11-23T22:11:39.537Z,101782.26
2018-11-23T22:14:07.213Z,101776.14
2018-11-23T22:16:34.886Z,101775.25
2018-11-23T22:19:02.488Z,101772.21
2018-11-23T22:21:30.160Z,101764.34
2018-11-23T22:24:01.736Z,101772.67
2018-11-23T22:26:25.465Z,101770.48
2018-11-23T22:28:53.168Z,101770.48
2018-11-23T22:31:20.760Z,101762.61
2018-11-23T22:33:48.417Z,101755.63
2018-11-23T22:36:16.085Z,101761.30
2018-11-23T22:38:43.722Z,101755.17
2018-11-23T22:41:11.362Z,101746.88
2018-11-23T22:43:38.997Z,101741.64
2018-11-23T22:46:06.597Z,101739.45
2018-11-23T22:48:34.245Z,101741.22
2018-11-23T22:51:01.946Z,101733.80
2018-11-23T22:53:29.577Z,101739.02
2018-11-23T22:55:57.248Z,101736.83
2018-11-23T22:58:24.893Z,101738.19
2018-11-23T23:00:57.137Z,101735.52
2018-11-23T23:03:24.831Z,101738.14
2018-11-23T23:05:52.549Z,101737.28
2018-11-23T23:08:20.175Z,101741.64
2018-11-23T23:10:47.831Z,101739.45
2018-11-23T23:13:15.480Z,101729.86
2018-11-23T23:15:43.259Z,101731.16
2018-11-23T23:18:10.834Z,101726.81
2018-11-23T23:20:38.480Z,101723.78
2018-11-23T23:23:06.134Z,101716.34
2018-11-23T23:25:33.779Z,101724.62
2018-11-23T23:28:01.429Z,101721.16
2018-11-23T23:30:29.079Z,101715.91
2018-11-23T23:32:56.773Z,101715.45
2018-11-23T23:35:24.396Z,101709.78
2018-11-23T23:37:52.048Z,101719.80
2018-11-23T23:40:19.840Z,101711.50
2018-11-23T23:42:47.987Z,101707.58
2018-11-23T23:45:16.569Z,101707.58
2018-11-23T23:47:44.227Z,101705.85
2018-11-23T23:50:21.069Z,101704.55
2018-11-23T23:52:49.218Z,101701.50
2018-11-23T23:55:16.866Z,101697.16
2018-11-23T23:57:45.345Z,101698.00
